sensor_id;sensor_type;location;lat;lon;timestamp;P1;durP1;ratioP1;P2;durP2;ratioP2
66923;SDS011;53835;47.984;7.844;2022-10-16T00:01:10;2.03;;;1.10;;
66923;SDS011;53835;47.984;7.844;2022-10-16T00:03:38;6.93;;;1.40;;
66923;SDS011;53835;47.984;7.844;2022-10-16T00:06:06;2.43;;;1.00;;
66923;SDS011;53835;47.984;7.844;2022-10-16T00:08:34;5.23;;;1.70;;
66923;SDS011;53835;47.984;7.844;2022-10-16T00:11:13;2.63;;;1.20;;
66923;SDS011;53835;47.984;7.844;2022-10-16T00:13:40;1.67;;;1.23;;
66923;SDS011;53835;47.984;7.844;2022-10-16T00:16:08;2.47;;;1.20;;
66923;SDS011;53835;47.984;7.844;2022-10-16T00:18:36;4.63;;;1.23;;
66923;SDS011;53835;47.984;7.844;2022-10-16T00:21:08;4.90;;;1.60;;
66923;SDS011;53835;47.984;7.844;2022-10-16T00:23:36;3.07;;;1.17;;
66923;SDS011;53835;47.984;7.844;2022-10-16T00:26:04;8.70;;;1.50;;
66923;SDS011;53835;47.984;7.844;2022-10-16T00:28:32;5.87;;;1.40;;
66923;SDS011;53835;47.984;7.844;2022-10-16T00:31:02;5.00;;;1.53;;
66923;SDS011;53835;47.984;7.844;2022-10-16T00:33:28;3.00;;;1.43;;
66923;SDS011;53835;47.984;7.844;2022-10-16T00:35:57;7.10;;;1.37;;
66923;SDS011;53835;47.984;7.844;2022-10-16T00:38:24;6.03;;;1.60;;
66923;SDS011;53835;47.984;7.844;2022-10-16T00:40:52;3.27;;;1.70;;
66923;SDS011;53835;47.984;7.844;2022-10-16T00:43:37;2.00;;;1.40;;
66923;SDS011;53835;47.984;7.844;2022-10-16T00:46:03;2.90;;;1.40;;
66923;SDS011;53835;47.984;7.844;2022-10-16T00:48:31;3.67;;;1.33;;
66923;SDS011;53835;47.984;7.844;2022-10-16T00:50:59;6.80;;;1.63;;
66923;SDS011;53835;47.984;7.844;2022-10-16T00:53:26;3.77;;;1.47;;
66923;SDS011;53835;47.984;7.844;2022-10-16T00:55:54;7.30;;;1.70;;
66923;SDS011;53835;47.984;7.844;2022-10-16T00:58:21;2.40;;;1.10;;
66923;SDS011;53835;47.984;7.844;2022-10-16T01:00:48;6.13;;;1.40;;
66923;SDS011;53835;47.984;7.844;2022-10-16T01:03:31;5.03;;;1.53;;
66923;SDS011;53835;47.984;7.844;2022-10-16T01:06:04;4.10;;;1.97;;
66923;SDS011;53835;47.984;7.844;2022-10-16T01:08:34;3.50;;;1.20;;
66923;SDS011;53835;47.984;7.844;2022-10-16T01:11:02;3.77;;;1.20;;
66923;SDS011;53835;47.984;7.844;2022-10-16T01:13:41;1.93;;;1.30;;
66923;SDS011;53835;47.984;7.844;2022-10-16T01:16:05;8.43;;;2.03;;
66923;SDS011;53835;47.984;7.844;2022-10-16T01:18:34;5.30;;;1.53;;
66923;SDS011;53835;47.984;7.844;2022-10-16T01:21:03;3.27;;;1.47;;
66923;SDS011;53835;47.984;7.844;2022-10-16T01:26:11;3.60;;;1.50;;
66923;SDS011;53835;47.984;7.844;2022-10-16T01:28:57;2.83;;;1.13;;
66923;SDS011;53835;47.984;7.844;2022-10-16T01:31:09;5.40;;;1.20;;
66923;SDS011;53835;47.984;7.844;2022-10-16T01:33:39;3.10;;;1.20;;
66923;SDS011;53835;47.984;7.844;2022-10-16T01:36:09;4.33;;;1.30;;
66923;SDS011;53835;47.984;7.844;2022-10-16T01:38:36;3.00;;;1.70;;
66923;SDS011;53835;47.984;7.844;2022-10-16T01:41:08;3.23;;;1.60;;
66923;SDS011;53835;47.984;7.844;2022-10-16T01:43:34;3.30;;;1.27;;
66923;SDS011;53835;47.984;7.844;2022-10-16T01:46:02;2.70;;;1.30;;
66923;SDS011;53835;47.984;7.844;2022-10-16T01:48:29;2.47;;;1.30;;
66923;SDS011;53835;47.984;7.844;2022-10-16T01:51:05;3.37;;;1.50;;
66923;SDS011;53835;47.984;7.844;2022-10-16T01:53:32;3.60;;;1.40;;
66923;SDS011;53835;47.984;7.844;2022-10-16T01:56:00;3.03;;;1.10;;
66923;SDS011;53835;47.984;7.844;2022-10-16T01:58:29;8.60;;;1.67;;
66923;SDS011;53835;47.984;7.844;2022-10-16T02:00:59;3.67;;;1.33;;
66923;SDS011;53835;47.984;7.844;2022-10-16T02:03:26;5.00;;;1.30;;
66923;SDS011;53835;47.984;7.844;2022-10-16T02:05:54;6.87;;;1.80;;
66923;SDS011;53835;47.984;7.844;2022-10-16T02:08:22;3.20;;;1.30;;
66923;SDS011;53835;47.984;7.844;2022-10-16T02:10:51;3.37;;;1.40;;
66923;SDS011;53835;47.984;7.844;2022-10-16T02:15:47;3.30;;;1.37;;
66923;SDS011;53835;47.984;7.844;2022-10-16T02:18:14;5.87;;;1.53;;
66923;SDS011;53835;47.984;7.844;2022-10-16T02:20:50;5.73;;;1.27;;
66923;SDS011;53835;47.984;7.844;2022-10-16T02:23:18;4.37;;;1.50;;
66923;SDS011;53835;47.984;7.844;2022-10-16T02:25:45;2.93;;;1.60;;
66923;SDS011;53835;47.984;7.844;2022-10-16T02:28:17;2.83;;;1.20;;
66923;SDS011;53835;47.984;7.844;2022-10-16T02:30:54;7.07;;;1.60;;
66923;SDS011;53835;47.984;7.844;2022-10-16T02:33:17;3.43;;;1.27;;
66923;SDS011;53835;47.984;7.844;2022-10-16T02:35:46;3.67;;;1.30;;
66923;SDS011;53835;47.984;7.844;2022-10-16T02:38:15;6.67;;;1.43;;
66923;SDS011;53835;47.984;7.844;2022-10-16T02:40:43;3.37;;;1.50;;
66923;SDS011;53835;47.984;7.844;2022-10-16T02:43:10;4.33;;;1.40;;
66923;SDS011;53835;47.984;7.844;2022-10-16T02:45:38;4.17;;;1.47;;
66923;SDS011;53835;47.984;7.844;2022-10-16T02:48:06;5.40;;;1.53;;
66923;SDS011;53835;47.984;7.844;2022-10-16T02:50:33;4.17;;;1.30;;
66923;SDS011;53835;47.984;7.844;2022-10-16T02:53:00;3.63;;;1.30;;
66923;SDS011;53835;47.984;7.844;2022-10-16T02:55:28;4.30;;;1.60;;
66923;SDS011;53835;47.984;7.844;2022-10-16T02:57:55;5.90;;;1.57;;
66923;SDS011;53835;47.984;7.844;2022-10-16T03:00:22;5.30;;;1.50;;
66923;SDS011;53835;47.984;7.844;2022-10-16T03:02:50;3.80;;;1.60;;
66923;SDS011;53835;47.984;7.844;2022-10-16T03:05:17;7.43;;;1.53;;
66923;SDS011;53835;47.984;7.844;2022-10-16T03:07:44;3.77;;;1.50;;
66923;SDS011;53835;47.984;7.844;2022-10-16T03:10:12;3.00;;;1.20;;
66923;SDS011;53835;47.984;7.844;2022-10-16T03:12:39;2.67;;;1.50;;
66923;SDS011;53835;47.984;7.844;2022-10-16T03:15:06;3.70;;;1.70;;
66923;SDS011;53835;47.984;7.844;2022-10-16T03:17:34;2.33;;;1.83;;
66923;SDS011;53835;47.984;7.844;2022-10-16T03:20:01;3.17;;;1.33;;
66923;SDS011;53835;47.984;7.844;2022-10-16T03:22:28;2.60;;;1.30;;
66923;SDS011;53835;47.984;7.844;2022-10-16T03:24:56;1.83;;;1.40;;
66923;SDS011;53835;47.984;7.844;2022-10-16T03:27:23;6.27;;;1.70;;
66923;SDS011;53835;47.984;7.844;2022-10-16T03:29:50;3.80;;;1.57;;
66923;SDS011;53835;47.984;7.844;2022-10-16T03:32:17;3.23;;;1.40;;
66923;SDS011;53835;47.984;7.844;2022-10-16T03:34:46;2.30;;;1.40;;
66923;SDS011;53835;47.984;7.844;2022-10-16T03:37:13;3.60;;;1.50;;
66923;SDS011;53835;47.984;7.844;2022-10-16T03:39:40;5.90;;;1.70;;
66923;SDS011;53835;47.984;7.844;2022-10-16T03:42:08;7.20;;;1.67;;
66923;SDS011;53835;47.984;7.844;2022-10-16T03:44:35;6.93;;;1.60;;
66923;SDS011;53835;47.984;7.844;2022-10-16T03:47:02;3.73;;;1.60;;
66923;SDS011;53835;47.984;7.844;2022-10-16T03:49:29;3.60;;;1.57;;
66923;SDS011;53835;47.984;7.844;2022-10-16T03:51:57;4.47;;;1.57;;
66923;SDS011;53835;47.984;7.844;2022-10-16T03:54:24;2.53;;;1.53;;
66923;SDS011;53835;47.984;7.844;2022-10-16T03:56:51;2.60;;;1.63;;
66923;SDS011;53835;47.984;7.844;2022-10-16T03:59:18;2.97;;;1.73;;
66923;SDS011;53835;47.984;7.844;2022-10-16T04:01:46;2.83;;;1.50;;
66923;SDS011;53835;47.984;7.844;2022-10-16T04:04:13;1.77;;;1.67;;
66923;SDS011;53835;47.984;7.844;2022-10-16T04:06:40;3.33;;;1.40;;
66923;SDS011;53835;47.984;7.844;2022-10-16T04:09:08;2.53;;;1.70;;
66923;SDS011;53835;47.984;7.844;2022-10-16T04:11:35;2.93;;;1.63;;
66923;SDS011;53835;47.984;7.844;2022-10-16T04:14:02;4.30;;;1.47;;
66923;SDS011;53835;47.984;7.844;2022-10-16T04:16:29;3.97;;;1.63;;
66923;SDS011;53835;47.984;7.844;2022-10-16T04:18:56;2.10;;;1.70;;
66923;SDS011;53835;47.984;7.844;2022-10-16T04:21:24;3.50;;;1.80;;
66923;SDS011;53835;47.984;7.844;2022-10-16T04:23:51;3.67;;;1.60;;
66923;SDS011;53835;47.984;7.844;2022-10-16T04:26:18;1.70;;;1.60;;
66923;SDS011;53835;47.984;7.844;2022-10-16T04:28:45;2.83;;;1.53;;
66923;SDS011;53835;47.984;7.844;2022-10-16T04:31:13;3.80;;;1.60;;
66923;SDS011;53835;47.984;7.844;2022-10-16T04:33:42;3.47;;;1.53;;
66923;SDS011;53835;47.984;7.844;2022-10-16T04:36:09;3.87;;;1.53;;
66923;SDS011;53835;47.984;7.844;2022-10-16T04:38:36;6.70;;;1.63;;
66923;SDS011;53835;47.984;7.844;2022-10-16T04:41:06;5.03;;;1.50;;
66923;SDS011;53835;47.984;7.844;2022-10-16T04:43:33;4.13;;;1.90;;
66923;SDS011;53835;47.984;7.844;2022-10-16T04:46:00;4.13;;;2.00;;
66923;SDS011;53835;47.984;7.844;2022-10-16T04:48:28;3.27;;;1.80;;
66923;SDS011;53835;47.984;7.844;2022-10-16T04:50:55;3.87;;;1.80;;
66923;SDS011;53835;47.984;7.844;2022-10-16T04:53:22;1.80;;;1.60;;
66923;SDS011;53835;47.984;7.844;2022-10-16T04:55:50;3.33;;;1.70;;
66923;SDS011;53835;47.984;7.844;2022-10-16T04:58:17;3.97;;;1.70;;
66923;SDS011;53835;47.984;7.844;2022-10-16T05:00:44;3.83;;;1.67;;
66923;SDS011;53835;47.984;7.844;2022-10-16T05:03:13;3.37;;;1.80;;
66923;SDS011;53835;47.984;7.844;2022-10-16T05:05:43;5.00;;;1.63;;
66923;SDS011;53835;47.984;7.844;2022-10-16T05:08:12;6.77;;;1.90;;
66923;SDS011;53835;47.984;7.844;2022-10-16T05:10:40;3.73;;;1.50;;
66923;SDS011;53835;47.984;7.844;2022-10-16T05:13:08;6.10;;;1.90;;
66923;SDS011;53835;47.984;7.844;2022-10-16T05:15:35;5.60;;;1.80;;
66923;SDS011;53835;47.984;7.844;2022-10-16T05:18:02;3.10;;;1.60;;
66923;SDS011;53835;47.984;7.844;2022-10-16T05:20:29;3.83;;;2.20;;
66923;SDS011;53835;47.984;7.844;2022-10-16T05:22:57;3.97;;;1.73;;
66923;SDS011;53835;47.984;7.844;2022-10-16T05:25:24;4.70;;;1.90;;
66923;SDS011;53835;47.984;7.844;2022-10-16T05:27:51;3.77;;;1.57;;
66923;SDS011;53835;47.984;7.844;2022-10-16T05:30:18;2.93;;;1.57;;
66923;SDS011;53835;47.984;7.844;2022-10-16T05:32:49;2.53;;;1.57;;
66923;SDS011;53835;47.984;7.844;2022-10-16T05:35:17;2.33;;;1.53;;
66923;SDS011;53835;47.984;7.844;2022-10-16T05:37:45;2.63;;;1.63;;
66923;SDS011;53835;47.984;7.844;2022-10-16T05:40:12;10.00;;;2.13;;
66923;SDS011;53835;47.984;7.844;2022-10-16T05:42:40;3.60;;;1.67;;
66923;SDS011;53835;47.984;7.844;2022-10-16T05:45:09;3.60;;;1.63;;
66923;SDS011;53835;47.984;7.844;2022-10-16T05:47:37;3.27;;;2.10;;
66923;SDS011;53835;47.984;7.844;2022-10-16T05:50:04;4.50;;;1.80;;
66923;SDS011;53835;47.984;7.844;2022-10-16T05:52:31;5.73;;;1.83;;
66923;SDS011;53835;47.984;7.844;2022-10-16T05:54:59;3.43;;;2.13;;
66923;SDS011;53835;47.984;7.844;2022-10-16T05:57:26;4.60;;;1.90;;
66923;SDS011;53835;47.984;7.844;2022-10-16T05:59:53;7.37;;;2.10;;
66923;SDS011;53835;47.984;7.844;2022-10-16T06:02:20;3.50;;;1.60;;
66923;SDS011;53835;47.984;7.844;2022-10-16T06:04:48;2.87;;;1.77;;
66923;SDS011;53835;47.984;7.844;2022-10-16T06:07:15;6.00;;;1.70;;
66923;SDS011;53835;47.984;7.844;2022-10-16T06:09:42;2.67;;;1.63;;
66923;SDS011;53835;47.984;7.844;2022-10-16T06:12:09;3.67;;;1.87;;
66923;SDS011;53835;47.984;7.844;2022-10-16T06:14:37;2.67;;;1.90;;
66923;SDS011;53835;47.984;7.844;2022-10-16T06:17:04;2.53;;;1.97;;
66923;SDS011;53835;47.984;7.844;2022-10-16T06:19:31;5.53;;;1.90;;
66923;SDS011;53835;47.984;7.844;2022-10-16T06:21:59;2.63;;;1.67;;
66923;SDS011;53835;47.984;7.844;2022-10-16T06:24:26;4.43;;;1.73;;
66923;SDS011;53835;47.984;7.844;2022-10-16T06:26:53;5.13;;;2.13;;
66923;SDS011;53835;47.984;7.844;2022-10-16T06:29:21;7.70;;;2.10;;
66923;SDS011;53835;47.984;7.844;2022-10-16T06:31:48;5.97;;;1.83;;
66923;SDS011;53835;47.984;7.844;2022-10-16T06:34:15;3.87;;;1.77;;
66923;SDS011;53835;47.984;7.844;2022-10-16T06:36:42;3.23;;;2.00;;
66923;SDS011;53835;47.984;7.844;2022-10-16T06:39:10;3.97;;;1.90;;
66923;SDS011;53835;47.984;7.844;2022-10-16T06:41:37;3.30;;;1.80;;
66923;SDS011;53835;47.984;7.844;2022-10-16T06:44:05;4.33;;;2.10;;
66923;SDS011;53835;47.984;7.844;2022-10-16T06:46:32;5.47;;;2.00;;
66923;SDS011;53835;47.984;7.844;2022-10-16T06:49:00;5.07;;;2.10;;
66923;SDS011;53835;47.984;7.844;2022-10-16T06:51:27;4.47;;;1.90;;
66923;SDS011;53835;47.984;7.844;2022-10-16T06:53:55;5.73;;;1.87;;
66923;SDS011;53835;47.984;7.844;2022-10-16T06:56:26;9.67;;;2.27;;
66923;SDS011;53835;47.984;7.844;2022-10-16T06:58:55;5.70;;;2.10;;
66923;SDS011;53835;47.984;7.844;2022-10-16T07:01:24;3.23;;;2.23;;
66923;SDS011;53835;47.984;7.844;2022-10-16T07:03:51;7.87;;;2.77;;
66923;SDS011;53835;47.984;7.844;2022-10-16T07:06:20;7.37;;;3.23;;
66923;SDS011;53835;47.984;7.844;2022-10-16T07:08:47;8.10;;;2.00;;
66923;SDS011;53835;47.984;7.844;2022-10-16T07:11:16;5.53;;;2.43;;
66923;SDS011;53835;47.984;7.844;2022-10-16T07:13:44;4.03;;;2.50;;
66923;SDS011;53835;47.984;7.844;2022-10-16T07:16:17;2.57;;;2.30;;
66923;SDS011;53835;47.984;7.844;2022-10-16T07:18:41;6.10;;;2.30;;
66923;SDS011;53835;47.984;7.844;2022-10-16T07:21:10;3.80;;;2.27;;
66923;SDS011;53835;47.984;7.844;2022-10-16T07:23:38;5.30;;;1.63;;
66923;SDS011;53835;47.984;7.844;2022-10-16T07:26:06;4.60;;;2.07;;
66923;SDS011;53835;47.984;7.844;2022-10-16T07:28:33;6.63;;;2.10;;
66923;SDS011;53835;47.984;7.844;2022-10-16T07:31:06;6.00;;;2.07;;
66923;SDS011;53835;47.984;7.844;2022-10-16T07:33:31;9.33;;;2.67;;
66923;SDS011;53835;47.984;7.844;2022-10-16T07:35:58;4.07;;;2.00;;
66923;SDS011;53835;47.984;7.844;2022-10-16T07:38:25;4.20;;;2.07;;
66923;SDS011;53835;47.984;7.844;2022-10-16T07:41:04;10.40;;;2.43;;
66923;SDS011;53835;47.984;7.844;2022-10-16T07:43:27;6.10;;;2.40;;
66923;SDS011;53835;47.984;7.844;2022-10-16T07:45:54;5.83;;;2.53;;
66923;SDS011;53835;47.984;7.844;2022-10-16T07:48:22;2.07;;;1.83;;
66923;SDS011;53835;47.984;7.844;2022-10-16T07:50:50;3.47;;;2.17;;
66923;SDS011;53835;47.984;7.844;2022-10-16T07:53:17;9.80;;;2.93;;
66923;SDS011;53835;47.984;7.844;2022-10-16T07:55:44;3.73;;;2.30;;
66923;SDS011;53835;47.984;7.844;2022-10-16T07:58:11;6.03;;;2.57;;
66923;SDS011;53835;47.984;7.844;2022-10-16T08:00:39;7.40;;;2.90;;
66923;SDS011;53835;47.984;7.844;2022-10-16T08:03:06;8.97;;;2.23;;
66923;SDS011;53835;47.984;7.844;2022-10-16T08:05:33;7.72;;;2.30;;
66923;SDS011;53835;47.984;7.844;2022-10-16T08:08:01;7.07;;;2.40;;
66923;SDS011;53835;47.984;7.844;2022-10-16T08:10:28;6.27;;;2.37;;
66923;SDS011;53835;47.984;7.844;2022-10-16T08:12:56;4.92;;;2.50;;
66923;SDS011;53835;47.984;7.844;2022-10-16T08:15:23;4.57;;;2.33;;
66923;SDS011;53835;47.984;7.844;2022-10-16T08:17:54;3.67;;;1.98;;
66923;SDS011;53835;47.984;7.844;2022-10-16T08:20:22;3.62;;;2.02;;
66923;SDS011;53835;47.984;7.844;2022-10-16T08:22:49;4.22;;;2.12;;
66923;SDS011;53835;47.984;7.844;2022-10-16T08:25:16;3.87;;;2.08;;
66923;SDS011;53835;47.984;7.844;2022-10-16T08:27:43;5.33;;;2.00;;
66923;SDS011;53835;47.984;7.844;2022-10-16T08:30:11;3.60;;;2.20;;
66923;SDS011;53835;47.984;7.844;2022-10-16T08:32:38;6.10;;;2.50;;
66923;SDS011;53835;47.984;7.844;2022-10-16T08:35:08;9.35;;;2.22;;
66923;SDS011;53835;47.984;7.844;2022-10-16T08:37:35;3.42;;;2.30;;
66923;SDS011;53835;47.984;7.844;2022-10-16T08:40:03;3.47;;;2.10;;
66923;SDS011;53835;47.984;7.844;2022-10-16T08:45:08;6.08;;;2.35;;
66923;SDS011;53835;47.984;7.844;2022-10-16T08:47:44;3.42;;;2.25;;
66923;SDS011;53835;47.984;7.844;2022-10-16T08:50:13;8.00;;;2.62;;
66923;SDS011;53835;47.984;7.844;2022-10-16T08:52:41;4.67;;;2.15;;
66923;SDS011;53835;47.984;7.844;2022-10-16T08:55:17;7.25;;;2.40;;
66923;SDS011;53835;47.984;7.844;2022-10-16T08:57:38;6.40;;;2.37;;
66923;SDS011;53835;47.984;7.844;2022-10-16T09:00:12;10.60;;;2.55;;
66923;SDS011;53835;47.984;7.844;2022-10-16T09:02:38;3.55;;;2.25;;
66923;SDS011;53835;47.984;7.844;2022-10-16T09:12:46;5.62;;;2.52;;
66923;SDS011;53835;47.984;7.844;2022-10-16T09:17:53;6.83;;;2.50;;
66923;SDS011;53835;47.984;7.844;2022-10-16T09:23:08;3.70;;;2.08;;
66923;SDS011;53835;47.984;7.844;2022-10-16T09:25:25;3.45;;;1.60;;
66923;SDS011;53835;47.984;7.844;2022-10-16T09:27:53;9.20;;;2.12;;
66923;SDS011;53835;47.984;7.844;2022-10-16T09:30:21;2.95;;;1.92;;
66923;SDS011;53835;47.984;7.844;2022-10-16T09:32:50;7.22;;;2.20;;
66923;SDS011;53835;47.984;7.844;2022-10-16T09:35:36;5.87;;;1.92;;
66923;SDS011;53835;47.984;7.844;2022-10-16T09:37:59;5.08;;;1.80;;
66923;SDS011;53835;47.984;7.844;2022-10-16T09:40:28;4.20;;;1.85;;
66923;SDS011;53835;47.984;7.844;2022-10-16T09:43:07;5.80;;;1.70;;
66923;SDS011;53835;47.984;7.844;2022-10-16T09:45:27;4.42;;;1.90;;
66923;SDS011;53835;47.984;7.844;2022-10-16T09:47:54;6.15;;;1.85;;
66923;SDS011;53835;47.984;7.844;2022-10-16T09:50:23;8.00;;;2.08;;
66923;SDS011;53835;47.984;7.844;2022-10-16T09:52:51;3.95;;;1.85;;
66923;SDS011;53835;47.984;7.844;2022-10-16T09:55:18;4.50;;;1.77;;
66923;SDS011;53835;47.984;7.844;2022-10-16T09:57:49;8.85;;;1.92;;
66923;SDS011;53835;47.984;7.844;2022-10-16T10:00:17;4.35;;;1.90;;
66923;SDS011;53835;47.984;7.844;2022-10-16T10:02:45;2.67;;;1.55;;
66923;SDS011;53835;47.984;7.844;2022-10-16T10:05:25;5.03;;;1.42;;
66923;SDS011;53835;47.984;7.844;2022-10-16T10:07:57;2.92;;;1.70;;
66923;SDS011;53835;47.984;7.844;2022-10-16T10:10:26;2.47;;;1.62;;
66923;SDS011;53835;47.984;7.844;2022-10-16T10:12:54;4.33;;;1.47;;
66923;SDS011;53835;47.984;7.844;2022-10-16T10:15:22;4.97;;;1.27;;
66923;SDS011;53835;47.984;7.844;2022-10-16T10:17:51;3.42;;;1.55;;
66923;SDS011;53835;47.984;7.844;2022-10-16T10:20:23;1.40;;;1.00;;
66923;SDS011;53835;47.984;7.844;2022-10-16T10:22:51;0.93;;;0.93;;
66923;SDS011;53835;47.984;7.844;2022-10-16T10:25:21;2.45;;;1.10;;
66923;SDS011;53835;47.984;7.844;2022-10-16T10:30:42;3.42;;;1.10;;
66923;SDS011;53835;47.984;7.844;2022-10-16T10:38:34;4.10;;;1.17;;
66923;SDS011;53835;47.984;7.844;2022-10-16T10:41:03;1.77;;;1.50;;
66923;SDS011;53835;47.984;7.844;2022-10-16T10:43:40;3.42;;;1.60;;
66923;SDS011;53835;47.984;7.844;2022-10-16T10:46:07;3.10;;;1.25;;
66923;SDS011;53835;47.984;7.844;2022-10-16T10:48:56;1.65;;;0.82;;
66923;SDS011;53835;47.984;7.844;2022-10-16T10:51:21;0.88;;;0.88;;
66923;SDS011;53835;47.984;7.844;2022-10-16T10:53:56;1.35;;;1.25;;
66923;SDS011;53835;47.984;7.844;2022-10-16T10:56:34;1.60;;;1.20;;
66923;SDS011;53835;47.984;7.844;2022-10-16T11:01:31;2.52;;;1.02;;
66923;SDS011;53835;47.984;7.844;2022-10-16T11:06:55;3.80;;;1.12;;
66923;SDS011;53835;47.984;7.844;2022-10-16T11:09:28;1.72;;;1.12;;
66923;SDS011;53835;47.984;7.844;2022-10-16T11:14:44;1.92;;;1.05;;
66923;SDS011;53835;47.984;7.844;2022-10-16T11:17:12;1.77;;;1.10;;
66923;SDS011;53835;47.984;7.844;2022-10-16T11:19:50;2.35;;;1.30;;
66923;SDS011;53835;47.984;7.844;2022-10-16T11:24:51;2.12;;;1.20;;
66923;SDS011;53835;47.984;7.844;2022-10-16T11:27:35;2.55;;;1.20;;
66923;SDS011;53835;47.984;7.844;2022-10-16T11:29:59;2.40;;;1.20;;
66923;SDS011;53835;47.984;7.844;2022-10-16T11:32:36;2.35;;;1.40;;
66923;SDS011;53835;47.984;7.844;2022-10-16T11:35:10;2.80;;;1.22;;
66923;SDS011;53835;47.984;7.844;2022-10-16T11:37:39;1.42;;;1.10;;
66923;SDS011;53835;47.984;7.844;2022-10-16T11:40:21;2.60;;;1.50;;
66923;SDS011;53835;47.984;7.844;2022-10-16T11:43:06;1.40;;;1.30;;
66923;SDS011;53835;47.984;7.844;2022-10-16T11:45:42;1.65;;;1.50;;
66923;SDS011;53835;47.984;7.844;2022-10-16T11:50:43;1.47;;;1.30;;
66923;SDS011;53835;47.984;7.844;2022-10-16T11:55:39;1.82;;;1.20;;
66923;SDS011;53835;47.984;7.844;2022-10-16T11:58:24;1.32;;;1.22;;
66923;SDS011;53835;47.984;7.844;2022-10-16T12:03:38;2.50;;;1.20;;
66923;SDS011;53835;47.984;7.844;2022-10-16T12:06:10;2.77;;;1.17;;
66923;SDS011;53835;47.984;7.844;2022-10-16T12:08:33;2.10;;;1.22;;
66923;SDS011;53835;47.984;7.844;2022-10-16T12:11:08;2.17;;;1.25;;
66923;SDS011;53835;47.984;7.844;2022-10-16T12:13:41;1.92;;;1.25;;
66923;SDS011;53835;47.984;7.844;2022-10-16T12:16:23;5.50;;;1.25;;
66923;SDS011;53835;47.984;7.844;2022-10-16T12:18:36;1.50;;;1.20;;
66923;SDS011;53835;47.984;7.844;2022-10-16T12:21:03;1.40;;;1.30;;
66923;SDS011;53835;47.984;7.844;2022-10-16T12:23:33;1.42;;;1.12;;
66923;SDS011;53835;47.984;7.844;2022-10-16T12:26:01;1.30;;;1.20;;
66923;SDS011;53835;47.984;7.844;2022-10-16T12:28:29;1.52;;;1.15;;
66923;SDS011;53835;47.984;7.844;2022-10-16T12:31:01;3.40;;;1.87;;
66923;SDS011;53835;47.984;7.844;2022-10-16T12:33:30;2.75;;;1.47;;
66923;SDS011;53835;47.984;7.844;2022-10-16T12:35:58;1.85;;;1.30;;
66923;SDS011;53835;47.984;7.844;2022-10-16T12:41:00;1.40;;;1.30;;
66923;SDS011;53835;47.984;7.844;2022-10-16T12:43:40;1.95;;;1.30;;
66923;SDS011;53835;47.984;7.844;2022-10-16T12:48:41;5.62;;;1.30;;
66923;SDS011;53835;47.984;7.844;2022-10-16T12:51:22;3.98;;;1.40;;
66923;SDS011;53835;47.984;7.844;2022-10-16T12:53:41;2.00;;;1.52;;
66923;SDS011;53835;47.984;7.844;2022-10-16T12:56:14;1.42;;;1.27;;
66923;SDS011;53835;47.984;7.844;2022-10-16T12:59:00;3.67;;;1.20;;
66923;SDS011;53835;47.984;7.844;2022-10-16T13:01:42;1.55;;;1.30;;
66923;SDS011;53835;47.984;7.844;2022-10-16T13:22:03;1.55;;;1.32;;
66923;SDS011;53835;47.984;7.844;2022-10-16T13:29:33;2.60;;;1.50;;
66923;SDS011;53835;47.984;7.844;2022-10-16T13:32:01;1.75;;;1.40;;
66923;SDS011;53835;47.984;7.844;2022-10-16T13:34:29;2.08;;;1.32;;
66923;SDS011;53835;47.984;7.844;2022-10-16T13:36:56;4.17;;;2.90;;
66923;SDS011;53835;47.984;7.844;2022-10-16T13:39:25;3.70;;;1.65;;
66923;SDS011;53835;47.984;7.844;2022-10-16T13:42:01;2.50;;;1.40;;
66923;SDS011;53835;47.984;7.844;2022-10-16T13:44:27;5.00;;;1.85;;
66923;SDS011;53835;47.984;7.844;2022-10-16T13:46:58;4.30;;;1.45;;
66923;SDS011;53835;47.984;7.844;2022-10-16T13:49:26;3.47;;;1.60;;
66923;SDS011;53835;47.984;7.844;2022-10-16T13:51:58;2.67;;;1.50;;
66923;SDS011;53835;47.984;7.844;2022-10-16T13:54:23;2.40;;;1.35;;
66923;SDS011;53835;47.984;7.844;2022-10-16T13:56:50;1.40;;;1.30;;
66923;SDS011;53835;47.984;7.844;2022-10-16T13:59:32;5.30;;;1.70;;
66923;SDS011;53835;47.984;7.844;2022-10-16T14:01:55;2.40;;;1.30;;
66923;SDS011;53835;47.984;7.844;2022-10-16T14:04:24;6.75;;;1.62;;
66923;SDS011;53835;47.984;7.844;2022-10-16T14:06:52;3.33;;;1.40;;
66923;SDS011;53835;47.984;7.844;2022-10-16T14:09:24;4.15;;;1.60;;
66923;SDS011;53835;47.984;7.844;2022-10-16T14:12:00;2.30;;;1.37;;
66923;SDS011;53835;47.984;7.844;2022-10-16T14:14:27;2.40;;;1.35;;
66923;SDS011;53835;47.984;7.844;2022-10-16T14:16:55;4.97;;;1.65;;
66923;SDS011;53835;47.984;7.844;2022-10-16T14:19:28;9.08;;;2.00;;
66923;SDS011;53835;47.984;7.844;2022-10-16T14:21:52;11.55;;;1.98;;
66923;SDS011;53835;47.984;7.844;2022-10-16T14:24:32;2.60;;;1.40;;
66923;SDS011;53835;47.984;7.844;2022-10-16T14:27:00;3.58;;;1.62;;
66923;SDS011;53835;47.984;7.844;2022-10-16T14:29:28;6.17;;;2.37;;
66923;SDS011;53835;47.984;7.844;2022-10-16T14:32:02;4.40;;;1.42;;
66923;SDS011;53835;47.984;7.844;2022-10-16T14:34:33;2.22;;;1.57;;
66923;SDS011;53835;47.984;7.844;2022-10-16T14:37:24;7.60;;;1.60;;
66923;SDS011;53835;47.984;7.844;2022-10-16T14:39:32;6.67;;;2.20;;
66923;SDS011;53835;47.984;7.844;2022-10-16T14:41:59;5.20;;;1.87;;
66923;SDS011;53835;47.984;7.844;2022-10-16T14:44:28;9.98;;;1.95;;
66923;SDS011;53835;47.984;7.844;2022-10-16T14:46:55;9.25;;;2.02;;
66923;SDS011;53835;47.984;7.844;2022-10-16T14:49:23;4.08;;;2.08;;
66923;SDS011;53835;47.984;7.844;2022-10-16T14:51:51;7.80;;;2.15;;
66923;SDS011;53835;47.984;7.844;2022-10-16T14:54:18;17.87;;;2.30;;
66923;SDS011;53835;47.984;7.844;2022-10-16T14:59:23;4.42;;;1.95;;
66923;SDS011;53835;47.984;7.844;2022-10-16T15:01:46;13.03;;;3.27;;
66923;SDS011;53835;47.984;7.844;2022-10-16T15:04:14;10.03;;;2.60;;
66923;SDS011;53835;47.984;7.844;2022-10-16T15:06:41;4.95;;;2.25;;
66923;SDS011;53835;47.984;7.844;2022-10-16T15:09:09;8.83;;;1.87;;
66923;SDS011;53835;47.984;7.844;2022-10-16T15:11:36;4.28;;;1.80;;
66923;SDS011;53835;47.984;7.844;2022-10-16T15:14:03;5.90;;;2.00;;
66923;SDS011;53835;47.984;7.844;2022-10-16T15:16:31;3.58;;;1.87;;
66923;SDS011;53835;47.984;7.844;2022-10-16T15:18:58;5.20;;;1.87;;
66923;SDS011;53835;47.984;7.844;2022-10-16T15:21:29;9.28;;;2.12;;
66923;SDS011;53835;47.984;7.844;2022-10-16T15:23:57;7.17;;;2.05;;
66923;SDS011;53835;47.984;7.844;2022-10-16T15:26:26;3.80;;;2.15;;
66923;SDS011;53835;47.984;7.844;2022-10-16T15:28:54;4.45;;;2.20;;
66923;SDS011;53835;47.984;7.844;2022-10-16T15:31:21;4.12;;;2.37;;
66923;SDS011;53835;47.984;7.844;2022-10-16T15:33:52;3.62;;;2.35;;
66923;SDS011;53835;47.984;7.844;2022-10-16T15:36:29;4.65;;;2.42;;
66923;SDS011;53835;47.984;7.844;2022-10-16T15:38:53;4.03;;;2.70;;
66923;SDS011;53835;47.984;7.844;2022-10-16T15:41:20;5.17;;;2.45;;
66923;SDS011;53835;47.984;7.844;2022-10-16T15:43:48;7.30;;;2.42;;
66923;SDS011;53835;47.984;7.844;2022-10-16T15:46:20;5.53;;;2.50;;
66923;SDS011;53835;47.984;7.844;2022-10-16T15:48:47;11.97;;;2.90;;
66923;SDS011;53835;47.984;7.844;2022-10-16T15:51:16;4.85;;;2.30;;
66923;SDS011;53835;47.984;7.844;2022-10-16T15:53:43;5.60;;;2.10;;
66923;SDS011;53835;47.984;7.844;2022-10-16T15:56:13;5.90;;;2.30;;
66923;SDS011;53835;47.984;7.844;2022-10-16T15:58:40;5.05;;;2.02;;
66923;SDS011;53835;47.984;7.844;2022-10-16T16:01:08;4.62;;;2.30;;
66923;SDS011;53835;47.984;7.844;2022-10-16T16:03:37;10.43;;;2.55;;
66923;SDS011;53835;47.984;7.844;2022-10-16T16:06:07;7.80;;;2.15;;
66923;SDS011;53835;47.984;7.844;2022-10-16T16:08:35;5.75;;;2.47;;
66923;SDS011;53835;47.984;7.844;2022-10-16T16:11:07;13.60;;;2.70;;
66923;SDS011;53835;47.984;7.844;2022-10-16T16:13:31;9.00;;;2.10;;
66923;SDS011;53835;47.984;7.844;2022-10-16T16:15:59;3.87;;;1.90;;